Time;durP1;ratioP1;P1;durP2;ratioP2;P2;SDS_P1;SDS_P2;PMS_P1;PMS_P2;Temp;Humidity;BMP_temperature;BMP_pressure;BME280_temperature;BME280_humidity;BME280_pressure;Samples;Min_cycle;Max_cycle;Signal;HPM_P1;HPM_P2
2022/11/12 00:00:42;;;;;;;;;;;10.20;74.20;;;;;;5025324;28;20011;-81
2022/11/12 00:03:08;;;;;;;;;;;10.10;74.30;;;;;;5011201;28;19941;-82
2022/11/12 00:05:33;;;;;;;;;;;10.10;74.30;;;;;;5026118;28;19932;-82
2022/11/12 00:07:59;;;;;;;;;;;10.10;74.00;;;;;;5027554;28;19924;-81
2022/11/12 00:10:24;;;;;;;;;;;10.10;74.60;;;;;;5029581;28;19921;-82
2022/11/12 00:12:50;;;;;;;;;;;10.00;74.60;;;;;;5003156;28;20047;-82
2022/11/12 00:15:15;;;;;;;;;;;10.00;74.60;;;;;;5020409;28;19917;-81
2022/11/12 00:17:41;;;;;;;;;;;9.90;74.60;;;;;;5025700;28;19922;-83
2022/11/12 00:20:06;;;;;;;;;;;9.90;75.10;;;;;;5026949;28;20031;-83
2022/11/12 00:22:32;;;;;;;;;;;9.70;75.60;;;;;;5008938;28;19913;-83
2022/11/12 00:24:57;;;;;;;;;;;9.60;76.00;;;;;;5008046;28;19921;-82
2022/11/12 00:27:23;;;;;;;;;;;9.70;75.90;;;;;;5028569;28;20148;-81
2022/11/12 00:29:48;;;;;;;;;;;9.60;75.70;;;;;;5004663;28;19952;-82
2022/11/12 00:32:14;;;;;;;;;;;9.60;76.20;;;;;;5024812;28;19975;-79
2022/11/12 00:34:39;;;;;;;;;;;9.60;76.30;;;;;;5011080;28;20000;-82
2022/11/12 00:37:05;;;;;;;;;;;9.70;76.50;;;;;;5004812;28;20506;-81
2022/11/12 00:39:31;;;;;;;;;;;9.60;76.60;;;;;;5028341;28;19923;-82
2022/11/12 00:41:56;;;;;;;;;;;9.60;76.90;;;;;;5003611;28;19913;-81
2022/11/12 00:44:22;;;;;;;;;;;9.50;77.00;;;;;;5022977;28;19925;-82
2022/11/12 00:46:48;;;;;;;;;;;9.50;76.80;;;;;;5025627;28;20046;-82
2022/11/12 00:49:13;;;;;;;;;;;9.40;77.10;;;;;;5012670;28;19924;-81
2022/11/12 00:51:39;;;;;;;;;;;9.30;77.00;;;;;;5025835;28;19922;-80
2022/11/12 00:54:04;;;;;;;;;;;9.20;77.30;;;;;;5031005;28;20036;-82
2022/11/12 00:56:30;;;;;;;;;;;9.20;77.10;;;;;;5024674;28;19920;-81
2022/11/12 00:58:56;;;;;;;;;;;9.10;76.90;;;;;;5031345;28;19983;-80
2022/11/12 01:01:21;;;;;;;;;;;9.00;77.60;;;;;;5037608;28;19921;-80
2022/11/12 01:03:47;;;;;;;;;;;9.00;78.00;;;;;;5046096;28;19909;-81
2022/11/12 01:06:14;;;;;;;;;;;9.00;77.90;;;;;;5043050;28;19931;-81
2022/11/12 01:08:40;;;;;;;;;;;9.00;77.20;;;;;;5029964;28;19912;-82
2022/11/12 01:11:05;;;;;;;;;;;8.90;78.20;;;;;;5051970;28;19916;-81
2022/11/12 01:13:31;;;;;;;;;;;8.90;78.70;;;;;;5013424;28;19967;-82
2022/11/12 01:15:56;;;;;;;;;;;8.90;78.60;;;;;;5032424;28;19917;-82
2022/11/12 01:18:21;;;;;;;;;;;8.90;78.30;;;;;;5023235;28;19917;-83
2022/11/12 01:20:47;;;;;;;;;;;8.80;78.50;;;;;;5033846;28;19901;-80
2022/11/12 01:23:12;;;;;;;;;;;8.80;78.60;;;;;;5032539;28;19913;-81
2022/11/12 01:25:38;;;;;;;;;;;8.60;78.30;;;;;;5032092;28;19980;-80
2022/11/12 01:28:03;;;;;;;;;;;8.60;78.40;;;;;;5016299;28;19921;-82
2022/11/12 01:30:29;;;;;;;;;;;8.60;78.40;;;;;;5031061;28;19974;-81
2022/11/12 01:32:55;;;;;;;;;;;8.50;78.80;;;;;;5029614;28;19984;-82
2022/11/12 01:35:20;;;;;;;;;;;8.50;78.80;;;;;;5028447;28;19920;-82
2022/11/12 01:37:45;;;;;;;;;;;8.50;78.50;;;;;;5008666;28;19913;-81
2022/11/12 01:40:11;;;;;;;;;;;8.50;78.50;;;;;;5028952;28;19914;-82
2022/11/12 01:42:37;;;;;;;;;;;8.40;78.30;;;;;;5026475;28;19913;-79
2022/11/12 01:45:14;;;;;;;;;;;8.30;78.80;;;;;;5013983;28;20368;-80
2022/11/12 01:47:41;;;;;;;;;;;8.20;79.20;;;;;;5008105;28;20007;-81
2022/11/12 01:50:09;;;;;;;;;;;8.20;78.90;;;;;;5004701;28;20013;-81
2022/11/12 01:52:40;;;;;;;;;;;8.20;78.70;;;;;;5020359;28;20371;-82
2022/11/12 01:55:08;;;;;;;;;;;8.10;78.50;;;;;;5023002;28;19917;-82
2022/11/12 01:57:40;;;;;;;;;;;8.10;79.00;;;;;;5008781;28;19913;-82
2022/11/12 02:00:09;;;;;;;;;;;8.00;79.50;;;;;;5030352;28;19913;-82
2022/11/12 02:02:35;;;;;;;;;;;8.00;79.60;;;;;;5005895;28;19996;-80
2022/11/12 02:05:01;;;;;;;;;;;8.00;79.10;;;;;;5019755;28;20011;-82
2022/11/12 02:07:27;;;;;;;;;;;7.90;79.00;;;;;;5008904;28;20655;-81
2022/11/12 02:09:53;;;;;;;;;;;7.90;79.30;;;;;;5006092;28;19929;-81
2022/11/12 02:14:46;;;;;;;;;;;7.80;79.70;;;;;;5061865;28;19924;-79
2022/11/12 02:17:11;;;;;;;;;;;7.80;79.20;;;;;;5069444;28;20158;-79
2022/11/12 02:19:37;;;;;;;;;;;7.80;79.10;;;;;;5045607;28;19917;-80
2022/11/12 02:22:02;;;;;;;;;;;7.90;78.60;;;;;;5069016;28;20041;-79
2022/11/12 02:24:30;;;;;;;;;;;7.90;78.60;;;;;;5068121;28;19982;-79
2022/11/12 02:26:55;;;;;;;;;;;7.70;78.70;;;;;;5067377;28;19929;-79
2022/11/12 02:29:21;;;;;;;;;;;7.60;78.70;;;;;;5068460;28;19920;-79
2022/11/12 02:31:47;;;;;;;;;;;7.60;79.10;;;;;;5044321;28;19913;-79
2022/11/12 02:34:13;;;;;;;;;;;7.50;79.50;;;;;;5065273;28;19912;-78
2022/11/12 02:36:38;;;;;;;;;;;7.50;79.10;;;;;;5061377;28;19912;-78
2022/11/12 02:39:04;;;;;;;;;;;7.60;80.00;;;;;;5047232;28;19917;-79
2022/11/12 02:41:29;;;;;;;;;;;7.50;79.50;;;;;;5062435;28;19939;-79
2022/11/12 02:43:55;;;;;;;;;;;7.40;79.20;;;;;;5064886;28;19916;-78
2022/11/12 02:46:20;;;;;;;;;;;7.30;79.10;;;;;;5050348;28;19921;-79
2022/11/12 02:48:46;;;;;;;;;;;7.30;79.20;;;;;;5069170;28;19919;-78
2022/11/12 02:51:11;;;;;;;;;;;7.20;79.90;;;;;;5067469;28;19975;-80
2022/11/12 02:53:37;;;;;;;;;;;7.30;79.40;;;;;;5067558;28;20326;-79
2022/11/12 02:56:02;;;;;;;;;;;7.20;79.80;;;;;;5065718;28;19927;-78
2022/11/12 02:58:28;;;;;;;;;;;7.30;79.30;;;;;;5064096;28;19920;-79
2022/11/12 03:00:55;;;;;;;;;;;7.30;79.10;;;;;;5063722;28;19912;-78
2022/11/12 03:03:21;;;;;;;;;;;7.40;79.80;;;;;;5035795;28;19921;-78
2022/11/12 03:05:54;;;;;;;;;;;7.40;79.10;;;;;;5044916;28;20306;-79
2022/11/12 03:08:19;;;;;;;;;;;7.30;79.60;;;;;;5062359;28;20038;-79
2022/11/12 03:10:45;;;;;;;;;;;7.40;79.90;;;;;;5063564;28;19975;-79
2022/11/12 03:13:10;;;;;;;;;;;7.30;80.20;;;;;;5060956;28;19927;-79
2022/11/12 03:15:36;;;;;;;;;;;7.20;81.10;;;;;;5046339;28;19917;-79
2022/11/12 03:18:01;;;;;;;;;;;7.30;81.00;;;;;;5046420;28;19913;-79
2022/11/12 03:20:27;;;;;;;;;;;7.40;80.10;;;;;;5059246;28;20715;-79
2022/11/12 03:23:09;;;;;;;;;;;7.50;79.70;;;;;;5042398;28;20269;-80
2022/11/12 03:25:34;;;;;;;;;;;7.50;79.30;;;;;;5068114;28;19934;-79
2022/11/12 03:28:01;;;;;;;;;;;7.60;79.20;;;;;;5064027;28;19912;-78
2022/11/12 03:30:27;;;;;;;;;;;7.40;79.50;;;;;;5069092;28;19976;-79
2022/11/12 03:32:53;;;;;;;;;;;7.30;79.70;;;;;;5046684;28;19912;-79
2022/11/12 03:35:18;;;;;;;;;;;7.20;79.60;;;;;;5064327;28;20338;-78
2022/11/12 03:37:44;;;;;;;;;;;7.10;79.50;;;;;;5061771;28;19939;-79
2022/11/12 03:40:10;;;;;;;;;;;7.10;79.70;;;;;;5066927;28;19917;-80
2022/11/12 03:42:35;;;;;;;;;;;7.10;80.10;;;;;;5060931;28;19947;-79
2022/11/12 03:45:00;;;;;;;;;;;7.10;79.70;;;;;;5065639;28;19923;-79
2022/11/12 03:47:26;;;;;;;;;;;7.00;81.20;;;;;;5045833;28;20299;-80
2022/11/12 03:49:51;;;;;;;;;;;7.10;80.70;;;;;;5066885;28;19912;-80
2022/11/12 03:52:17;;;;;;;;;;;7.20;80.40;;;;;;5069083;28;19912;-80
2022/11/12 03:54:42;;;;;;;;;;;7.20;81.00;;;;;;5069164;28;19919;-80
2022/11/12 03:57:08;;;;;;;;;;;7.20;81.10;;;;;;5052928;28;19916;-80
2022/11/12 03:59:33;;;;;;;;;;;7.30;80.40;;;;;;5053011;28;19921;-80
2022/11/12 04:01:58;;;;;;;;;;;7.30;80.30;;;;;;5067363;28;20359;-80
2022/11/12 04:08:34;;;;;;;;;;;7.30;79.90;;;;;;5070937;28;21268;-80
2022/11/12 04:09:54;;;;;;;;;;;7.30;79.80;;;;;;5058395;28;19919;-80
2022/11/12 04:15:03;;;;;;;;;;;7.30;80.80;;;;;;5063696;28;19927;-83
2022/11/12 04:22:57;;;;;;;;;;;7.30;80.10;;;;;;5064975;28;19970;-84
2022/11/12 04:28:20;;;;;;;;;;;7.30;80.30;;;;;;5020452;28;19966;-82
2022/11/12 04:30:45;;;;;;;;;;;7.30;80.50;;;;;;5050104;28;20367;-82
2022/11/12 04:33:11;;;;;;;;;;;7.30;80.10;;;;;;5060123;28;19995;-82
2022/11/12 04:35:36;;;;;;;;;;;7.20;79.80;;;;;;5057946;28;19909;-82
2022/11/12 04:38:02;;;;;;;;;;;7.10;79.80;;;;;;5087348;28;19913;-83
2022/11/12 04:46:09;;;;;;;;;;;6.70;79.90;;;;;;5069236;28;19922;-82
2022/11/12 04:48:34;;;;;;;;;;;6.90;79.50;;;;;;5042578;28;20015;-81
2022/11/12 04:51:01;;;;;;;;;;;6.90;80.50;;;;;;5065505;28;20397;-83
2022/11/12 04:53:27;;;;;;;;;;;6.90;80.30;;;;;;5067534;28;19952;-82
2022/11/12 04:55:54;;;;;;;;;;;6.80;80.90;;;;;;5053459;28;19968;-82
2022/11/12 04:58:20;;;;;;;;;;;6.80;81.30;;;;;;5046783;28;19966;-80
2022/11/12 05:00:46;;;;;;;;;;;6.80;81.10;;;;;;5050743;28;19913;-82
2022/11/12 05:03:11;;;;;;;;;;;6.80;80.90;;;;;;5068803;28;20319;-82
2022/11/12 05:05:37;;;;;;;;;;;6.80;80.80;;;;;;5066294;28;19966;-82
2022/11/12 05:08:02;;;;;;;;;;;7.00;81.10;;;;;;5072264;28;19920;-82
2022/11/12 05:10:28;;;;;;;;;;;7.00;81.80;;;;;;5074369;28;20654;-83
2022/11/12 05:12:54;;;;;;;;;;;7.00;82.00;;;;;;5066637;28;19916;-82
2022/11/12 05:15:19;;;;;;;;;;;7.00;82.20;;;;;;5065590;28;19978;-82
2022/11/12 05:17:45;;;;;;;;;;;7.00;82.20;;;;;;5068174;28;20607;-83
2022/11/12 05:20:11;;;;;;;;;;;7.10;82.10;;;;;;5072453;28;19928;-82
2022/11/12 05:22:37;;;;;;;;;;;7.10;81.30;;;;;;5051510;28;19913;-82
2022/11/12 05:25:03;;;;;;;;;;;7.20;81.30;;;;;;5067552;28;20256;-83
2022/11/12 05:27:28;;;;;;;;;;;7.10;80.90;;;;;;5041794;28;19943;-82
2022/11/12 05:29:53;;;;;;;;;;;7.20;81.00;;;;;;5051446;28;19920;-83
2022/11/12 05:32:19;;;;;;;;;;;7.20;81.20;;;;;;5052243;28;19924;-83
2022/11/12 05:34:45;;;;;;;;;;;7.20;81.10;;;;;;5064922;28;19912;-83
2022/11/12 05:37:11;;;;;;;;;;;7.20;81.30;;;;;;5051255;28;19963;-83
2022/11/12 05:39:36;;;;;;;;;;;7.30;80.40;;;;;;5042895;28;19913;-83
2022/11/12 05:42:02;;;;;;;;;;;7.20;79.90;;;;;;5041460;28;19969;-83
2022/11/12 05:44:28;;;;;;;;;;;7.00;79.50;;;;;;5070528;28;20690;-83
2022/11/12 05:46:54;;;;;;;;;;;6.70;79.10;;;;;;5044109;28;19962;-83
2022/11/12 05:49:19;;;;;;;;;;;6.50;79.50;;;;;;5047458;28;20439;-83
2022/11/12 05:51:44;;;;;;;;;;;6.30;79.50;;;;;;5061162;28;20386;-83
2022/11/12 05:54:10;;;;;;;;;;;6.00;79.70;;;;;;5049475;28;19916;-83
2022/11/12 05:56:36;;;;;;;;;;;5.90;80.50;;;;;;5047158;28;20002;-83
2022/11/12 05:59:03;;;;;;;;;;;6.00;81.30;;;;;;5047964;28;20275;-83
2022/11/12 06:01:28;;;;;;;;;;;6.00;81.30;;;;;;5045178;28;20299;-81
2022/11/12 06:03:54;;;;;;;;;;;6.00;81.00;;;;;;5049699;28;20039;-82
2022/11/12 06:06:19;;;;;;;;;;;5.90;81.30;;;;;;5037639;28;19924;-82
2022/11/12 06:08:45;;;;;;;;;;;6.00;81.50;;;;;;5070147;28;20003;-82
2022/11/12 06:11:10;;;;;;;;;;;6.10;80.90;;;;;;5061710;28;19917;-81
2022/11/12 06:13:36;;;;;;;;;;;6.10;81.00;;;;;;5048022;28;19925;-83
2022/11/12 06:16:01;;;;;;;;;;;6.20;81.30;;;;;;5054704;28;19913;-83
2022/11/12 06:18:27;;;;;;;;;;;6.20;81.10;;;;;;5052065;28;19963;-83
2022/11/12 06:23:37;;;;;;;;;;;6.10;80.90;;;;;;5065907;28;19965;-83
2022/11/12 06:26:02;;;;;;;;;;;6.10;81.70;;;;;;5069891;28;19916;-83
2022/11/12 06:28:28;;;;;;;;;;;6.20;80.90;;;;;;5061906;28;19921;-83
2022/11/12 06:30:54;;;;;;;;;;;6.20;80.50;;;;;;5053733;28;19912;-82
2022/11/12 06:33:19;;;;;;;;;;;6.30;80.10;;;;;;5064501;28;19917;-83
2022/11/12 06:35:45;;;;;;;;;;;6.20;80.00;;;;;;5047196;28;20253;-83
2022/11/12 06:38:10;;;;;;;;;;;6.10;80.70;;;;;;5066378;28;20031;-82
2022/11/12 06:40:36;;;;;;;;;;;6.00;80.90;;;;;;5048035;28;20646;-82
2022/11/12 06:43:02;;;;;;;;;;;6.10;80.80;;;;;;5068185;28;20265;-83
2022/11/12 06:45:27;;;;;;;;;;;6.10;80.80;;;;;;5067188;28;19959;-82
2022/11/12 06:47:56;;;;;;;;;;;6.00;80.70;;;;;;5048121;28;19916;-82
2022/11/12 06:50:21;;;;;;;;;;;6.00;80.80;;;;;;5070305;28;19923;-82
2022/11/12 06:52:47;;;;;;;;;;;6.00;80.70;;;;;;5060549;28;19926;-82
2022/11/12 06:55:12;;;;;;;;;;;6.00;81.60;;;;;;5050967;28;19951;-82
2022/11/12 06:57:38;;;;;;;;;;;6.00;81.00;;;;;;5061926;28;19913;-82
2022/11/12 07:00:03;;;;;;;;;;;6.00;80.90;;;;;;5039287;28;19960;-83
2022/11/12 07:02:29;;;;;;;;;;;6.10;80.80;;;;;;5045634;28;19984;-82
2022/11/12 07:04:54;;;;;;;;;;;6.10;81.00;;;;;;5042942;28;20295;-83
2022/11/12 07:07:20;;;;;;;;;;;6.20;80.80;;;;;;5060952;28;20015;-83
2022/11/12 07:09:45;;;;;;;;;;;6.40;80.90;;;;;;5059673;28;19912;-83
2022/11/12 07:12:11;;;;;;;;;;;6.40;81.30;;;;;;5051297;28;19920;-82
2022/11/12 07:14:36;;;;;;;;;;;6.40;81.70;;;;;;5041297;28;19917;-82
2022/11/12 07:17:01;;;;;;;;;;;6.50;81.80;;;;;;5051325;28;19912;-82
2022/11/12 07:19:27;;;;;;;;;;;6.50;81.30;;;;;;5039891;28;20454;-83
2022/11/12 07:21:52;;;;;;;;;;;6.50;81.50;;;;;;5048887;28;19996;-82
2022/11/12 07:24:18;;;;;;;;;;;6.50;81.40;;;;;;5044571;28;19919;-82
2022/11/12 07:26:43;;;;;;;;;;;6.50;81.20;;;;;;5048474;28;19939;-81
2022/11/12 07:29:09;;;;;;;;;;;6.50;82.10;;;;;;5074853;28;20412;-81
2022/11/12 07:31:34;;;;;;;;;;;6.60;82.10;;;;;;5053967;28;19919;-82
2022/11/12 07:34:00;;;;;;;;;;;6.60;81.40;;;;;;5046265;28;19912;-83
2022/11/12 07:36:25;;;;;;;;;;;6.50;81.50;;;;;;5063942;28;19939;-82
2022/11/12 07:38:51;;;;;;;;;;;6.60;82.10;;;;;;5075533;28;20001;-83
2022/11/12 07:41:18;;;;;;;;;;;6.70;81.70;;;;;;5057623;28;19919;-82
2022/11/12 07:43:45;;;;;;;;;;;6.80;81.60;;;;;;5063676;28;19934;-82
2022/11/12 07:46:12;;;;;;;;;;;6.80;82.00;;;;;;5067393;28;19939;-82
2022/11/12 07:48:38;;;;;;;;;;;6.90;82.10;;;;;;5046787;28;20602;-83
2022/11/12 07:51:03;;;;;;;;;;;7.00;82.30;;;;;;5049238;28;19916;-82
2022/11/12 07:53:29;;;;;;;;;;;7.00;81.90;;;;;;5051539;28;19916;-83
2022/11/12 07:55:55;;;;;;;;;;;7.10;81.40;;;;;;5050066;28;20355;-81
2022/11/12 07:58:24;;;;;;;;;;;7.00;81.50;;;;;;5066816;28;19920;-82
2022/11/12 08:00:50;;;;;;;;;;;7.10;81.30;;;;;;5064534;28;20007;-81
2022/11/12 08:03:16;;;;;;;;;;;7.10;81.30;;;;;;5045448;28;19959;-81
2022/11/12 08:05:41;;;;;;;;;;;7.00;81.40;;;;;;5050160;28;19919;-81
2022/11/12 08:08:07;;;;;;;;;;;6.90;81.60;;;;;;5058208;28;19913;-82
2022/11/12 08:10:32;;;;;;;;;;;6.90;81.80;;;;;;5064252;28;19927;-83
2022/11/12 08:12:58;;;;;;;;;;;6.90;82.50;;;;;;5083284;22;19944;-83
2022/11/12 08:15:23;;;;;;;;;;;6.90;82.40;;;;;;5034316;28;19917;-84
2022/11/12 08:17:49;;;;;;;;;;;6.90;82.30;;;;;;5009859;28;19918;-84
2022/11/12 08:20:15;;;;;;;;;;;7.00;82.10;;;;;;5039130;28;20275;-81
2022/11/12 08:22:40;;;;;;;;;;;7.10;82.10;;;;;;5040970;28;19928;-83
2022/11/12 08:25:06;;;;;;;;;;;7.20;82.20;;;;;;5026487;28;19952;-84
2022/11/12 08:27:31;;;;;;;;;;;7.20;82.40;;;;;;4999600;28;19971;-83
2022/11/12 08:29:57;;;;;;;;;;;7.30;82.70;;;;;;5009254;28;19914;-83
2022/11/12 08:32:23;;;;;;;;;;;7.20;82.70;;;;;;5013002;28;19917;-83
2022/11/12 08:34:48;;;;;;;;;;;7.30;83.50;;;;;;4999059;28;19898;-82
2022/11/12 08:37:14;;;;;;;;;;;7.60;83.50;;;;;;4998650;28;19922;-82
2022/11/12 08:39:39;;;;;;;;;;;7.60;83.40;;;;;;5011941;28;20025;-82
2022/11/12 08:42:04;;;;;;;;;;;7.80;83.50;;;;;;5012036;28;19953;-83
2022/11/12 08:44:30;;;;;;;;;;;7.90;83.20;;;;;;5020017;28;19918;-83
2022/11/12 08:46:55;;;;;;;;;;;8.00;83.30;;;;;;5012186;28;19924;-82
2022/11/12 08:49:21;;;;;;;;;;;8.10;82.90;;;;;;5024264;28;20316;-79
2022/11/12 08:51:46;;;;;;;;;;;8.20;82.80;;;;;;5007194;28;19914;-82
2022/11/12 08:54:12;;;;;;;;;;;8.30;83.00;;;;;;5006524;28;19921;-81
2022/11/12 08:56:38;;;;;;;;;;;8.30;83.00;;;;;;5014385;28;19921;-81
2022/11/12 08:59:04;;;;;;;;;;;8.40;83.10;;;;;;5006480;28;19980;-80
2022/11/12 09:01:29;;;;;;;;;;;8.50;83.40;;;;;;5014900;28;20378;-80
2022/11/12 09:03:54;;;;;;;;;;;8.60;83.70;;;;;;5017310;28;19944;-82
2022/11/12 09:06:20;;;;;;;;;;;8.70;83.60;;;;;;5004766;28;19921;-82
2022/11/12 09:08:45;;;;;;;;;;;8.80;83.60;;;;;;5016176;28;19913;-80
2022/11/12 09:11:11;;;;;;;;;;;8.90;83.50;;;;;;5014512;28;19952;-82
2022/11/12 09:13:36;;;;;;;;;;;9.00;83.40;;;;;;5011061;28;20016;-81
2022/11/12 09:16:03;;;;;;;;;;;9.00;83.50;;;;;;5000120;28;19914;-82
2022/11/12 09:18:29;;;;;;;;;;;9.10;83.10;;;;;;4993531;28;19913;-82
2022/11/12 09:20:58;;;;;;;;;;;9.10;82.60;;;;;;5014785;28;19948;-82
2022/11/12 09:23:23;;;;;;;;;;;9.20;82.20;;;;;;5006819;28;20290;-82
2022/11/12 09:25:48;;;;;;;;;;;9.20;81.10;;;;;;5000676;28;19925;-82
2022/11/12 09:28:15;;;;;;;;;;;9.20;80.90;;;;;;5012045;28;19917;-82
2022/11/12 09:30:42;;;;;;;;;;;9.20;81.00;;;;;;5008587;28;20292;-83
2022/11/12 09:33:07;;;;;;;;;;;9.20;80.80;;;;;;5021529;28;19918;-84
2022/11/12 09:35:33;;;;;;;;;;;9.30;81.20;;;;;;5015793;28;20398;-84
2022/11/12 09:37:58;;;;;;;;;;;9.30;81.30;;;;;;4992917;28;19979;-84
2022/11/12 09:40:30;;;;;;;;;;;9.30;81.50;;;;;;5010440;28;19922;-84
2022/11/12 09:42:56;;;;;;;;;;;9.40;81.40;;;;;;5008044;28;19959;-84
2022/11/12 09:45:25;;;;;;;;;;;9.40;81.20;;;;;;5007551;28;20286;-85
2022/11/12 09:48:04;;;;;;;;;;;9.50;80.90;;;;;;5009064;28;20417;-84
2022/11/12 09:50:35;;;;;;;;;;;9.40;79.20;;;;;;5009800;28;20329;-85
2022/11/12 09:53:11;;;;;;;;;;;9.50;79.20;;;;;;4993453;28;19948;-83
2022/11/12 09:55:42;;;;;;;;;;;9.60;79.30;;;;;;5006359;28;19921;-83
2022/11/12 09:58:11;;;;;;;;;;;9.70;79.20;;;;;;4996692;28;19913;-82
2022/11/12 10:00:39;;;;;;;;;;;9.80;78.10;;;;;;5007776;28;19925;-83
2022/11/12 10:03:17;;;;;;;;;;;9.80;78.50;;;;;;5013828;28;20280;-82
2022/11/12 10:05:47;;;;;;;;;;;9.90;77.80;;;;;;5003150;28;19918;-83
2022/11/12 10:08:27;;;;;;;;;;;10.00;78.20;;;;;;4995610;28;20427;-81
2022/11/12 10:11:00;;;;;;;;;;;10.00;78.50;;;;;;4993489;28;19914;-82
2022/11/12 10:13:37;;;;;;;;;;;10.10;78.40;;;;;;5013908;28;20394;-81
2022/11/12 10:19:16;;;;;;;;;;;10.20;78.70;;;;;;5010778;28;19920;-81
2022/11/12 10:21:41;;;;;;;;;;;10.40;78.60;;;;;;5008180;28;19968;-81
2022/11/12 10:24:08;;;;;;;;;;;10.60;78.60;;;;;;5011128;28;19948;-81
2022/11/12 10:26:35;;;;;;;;;;;10.70;77.90;;;;;;5011795;28;19918;-81
2022/11/12 10:29:10;;;;;;;;;;;10.80;77.10;;;;;;5007694;28;20008;-81
2022/11/12 10:31:36;;;;;;;;;;;10.80;77.00;;;;;;5015381;28;19936;-84
2022/11/12 10:34:10;;;;;;;;;;;10.90;75.00;;;;;;5003599;28;19914;-85
2022/11/12 10:36:37;;;;;;;;;;;10.90;75.70;;;;;;4990107;28;20385;-83
2022/11/12 10:39:02;;;;;;;;;;;11.20;74.50;;;;;;5012480;28;19913;-87
2022/11/12 10:41:29;;;;;;;;;;;11.40;74.80;;;;;;5006455;28;19925;-82
2022/11/12 10:43:56;;;;;;;;;;;11.60;74.80;;;;;;5020051;28;20009;-82
2022/11/12 10:46:24;;;;;;;;;;;11.70;73.30;;;;;;5030488;28;19912;-82
2022/11/12 10:49:00;;;;;;;;;;;11.80;73.40;;;;;;4998130;28;19921;-83
2022/11/12 10:51:35;;;;;;;;;;;11.80;73.20;;;;;;4996085;28;19953;-83
2022/11/12 10:54:19;;;;;;;;;;;11.80;72.90;;;;;;5013499;28;20354;-82
2022/11/12 10:56:44;;;;;;;;;;;12.20;71.80;;;;;;5004860;28;19917;-83
2022/11/12 10:59:13;;;;;;;;;;;12.30;71.50;;;;;;5026171;28;19977;-83
2022/11/12 11:01:38;;;;;;;;;;;12.20;71.20;;;;;;5027660;28;20008;-84
2022/11/12 11:04:05;;;;;;;;;;;12.30;70.70;;;;;;5009104;28;19949;-84
2022/11/12 11:06:30;;;;;;;;;;;12.30;70.50;;;;;;4999976;28;19913;-83
2022/11/12 11:09:14;;;;;;;;;;;12.40;71.10;;;;;;5001093;28;19917;-84
2022/11/12 11:11:49;;;;;;;;;;;12.30;70.90;;;;;;5016822;28;20387;-84
2022/11/12 11:14:21;;;;;;;;;;;12.40;71.50;;;;;;5017074;28;19989;-84
2022/11/12 11:16:48;;;;;;;;;;;12.60;70.10;;;;;;5015717;28;19920;-84
2022/11/12 11:19:13;;;;;;;;;;;12.70;70.60;;;;;;5015739;28;20380;-84
2022/11/12 11:21:39;;;;;;;;;;;12.70;71.00;;;;;;5015184;28;19920;-84
2022/11/12 11:24:23;;;;;;;;;;;12.70;71.00;;;;;;4995313;28;19924;-83
2022/11/12 11:27:07;;;;;;;;;;;12.70;72.00;;;;;;5001660;28;21864;-84
2022/11/12 11:29:47;;;;;;;;;;;12.60;71.60;;;;;;5004357;28;21237;-84
2022/11/12 11:32:34;;;;;;;;;;;12.70;72.30;;;;;;4997393;28;19917;-83
2022/11/12 11:35:11;;;;;;;;;;;12.70;71.70;;;;;;4997427;28;20008;-83
2022/11/12 11:37:55;;;;;;;;;;;12.80;72.30;;;;;;5011688;28;19929;-83
2022/11/12 11:40:41;;;;;;;;;;;12.80;71.80;;;;;;5014728;28;19910;-83
2022/11/12 11:43:25;;;;;;;;;;;12.80;72.00;;;;;;5012822;28;19970;-84
2022/11/12 11:46:08;;;;;;;;;;;12.80;72.40;;;;;;5008366;28;19964;-85
2022/11/12 11:48:55;;;;;;;;;;;12.90;71.30;;;;;;4989277;28;19914;-83
2022/11/12 11:51:20;;;;;;;;;;;13.00;70.00;;;;;;5001410;28;19917;-82
2022/11/12 11:53:53;;;;;;;;;;;13.10;70.30;;;;;;4986333;28;19920;-82
2022/11/12 11:56:18;;;;;;;;;;;13.10;70.00;;;;;;5009513;28;19913;-82
2022/11/12 11:59:02;;;;;;;;;;;13.10;69.90;;;;;;5005390;28;20421;-80
2022/11/12 12:01:37;;;;;;;;;;;13.20;69.20;;;;;;4984901;28;19914;-81
2022/11/12 12:04:11;;;;;;;;;;;13.30;68.60;;;;;;5009869;28;20004;-80
2022/11/12 12:07:05;;;;;;;;;;;13.10;68.70;;;;;;4987163;28;20028;-81
2022/11/12 12:09:43;;;;;;;;;;;13.00;69.30;;;;;;5004582;28;20383;-80
2022/11/12 12:12:27;;;;;;;;;;;13.00;69.50;;;;;;4999151;28;19921;-80
2022/11/12 12:15:13;;;;;;;;;;;13.00;70.30;;;;;;5003458;28;19925;-80
2022/11/12 12:17:46;;;;;;;;;;;13.00;70.00;;;;;;5005137;28;19984;-80
2022/11/12 12:20:29;;;;;;;;;;;13.00;70.90;;;;;;4998845;28;19921;-81
2022/11/12 12:23:09;;;;;;;;;;;13.00;70.10;;;;;;5005969;28;19944;-82
2022/11/12 12:25:36;;;;;;;;;;;13.00;69.60;;;;;;5009706;28;19921;-79
2022/11/12 12:28:26;;;;;;;;;;;13.20;68.20;;;;;;5009473;28;19917;-82
2022/11/12 12:30:55;;;;;;;;;;;13.40;67.10;;;;;;5013122;28;19914;-82
2022/11/12 12:33:29;;;;;;;;;;;13.20;67.30;;;;;;5017266;28;19914;-82
2022/11/12 12:35:57;;;;;;;;;;;13.20;68.00;;;;;;5005628;28;19920;-83
2022/11/12 12:38:34;;;;;;;;;;;13.20;69.20;;;;;;4994732;28;19914;-82
2022/11/12 12:41:03;;;;;;;;;;;13.30;67.90;;;;;;5001067;28;19944;-81
2022/11/12 12:43:33;;;;;;;;;;;13.30;67.80;;;;;;5005333;28;20453;-82
2022/11/12 12:45:59;;;;;;;;;;;13.30;68.10;;;;;;5016070;28;20723;-81
2022/11/12 12:48:30;;;;;;;;;;;13.30;68.80;;;;;;4993212;28;20012;-82
2022/11/12 12:50:56;;;;;;;;;;;13.40;68.30;;;;;;5011450;28;19913;-83
2022/11/12 12:53:21;;;;;;;;;;;13.40;69.00;;;;;;4990997;28;20674;-84
2022/11/12 12:55:47;;;;;;;;;;;13.40;69.10;;;;;;5004578;28;19929;-84
2022/11/12 12:58:28;;;;;;;;;;;13.30;69.20;;;;;;5014965;28;19913;-83
2022/11/12 13:00:59;;;;;;;;;;;13.30;69.50;;;;;;5006489;28;19918;-83
2022/11/12 13:03:43;;;;;;;;;;;13.30;68.90;;;;;;5006233;28;19956;-82
2022/11/12 13:06:21;;;;;;;;;;;13.50;68.80;;;;;;5027732;28;19925;-82
2022/11/12 13:08:51;;;;;;;;;;;13.40;68.90;;;;;;5031093;28;19941;-83
2022/11/12 13:12:20;;;;;;;;;;;13.60;67.50;;;;;;5002151;28;20394;-83
2022/11/12 13:14:33;;;;;;;;;;;13.70;66.10;;;;;;5014775;28;19972;-83
2022/11/12 13:17:01;;;;;;;;;;;13.70;66.00;;;;;;5017006;28;20260;-83
2022/11/12 13:19:37;;;;;;;;;;;13.70;67.80;;;;;;5015625;28;19913;-84
2022/11/12 13:22:18;;;;;;;;;;;13.90;67.60;;;;;;5010121;28;19925;-83
2022/11/12 13:25:00;;;;;;;;;;;14.00;67.90;;;;;;5022737;28;19975;-82
2022/11/12 13:27:47;;;;;;;;;;;14.00;67.90;;;;;;4990438;28;19926;-82
2022/11/12 13:30:13;;;;;;;;;;;13.80;68.90;;;;;;5010064;28;19964;-83
2022/11/12 13:32:47;;;;;;;;;;;14.00;67.70;;;;;;5010890;28;19956;-82
2022/11/12 13:35:22;;;;;;;;;;;13.90;68.30;;;;;;5019549;28;19910;-83
2022/11/12 13:38:06;;;;;;;;;;;13.80;67.80;;;;;;5021864;28;19941;-82
2022/11/12 13:40:37;;;;;;;;;;;13.80;67.20;;;;;;5003906;28;19926;-82
2022/11/12 13:43:14;;;;;;;;;;;13.80;67.70;;;;;;4992996;28;19920;-83
2022/11/12 13:45:49;;;;;;;;;;;13.80;68.20;;;;;;5014395;28;19910;-83
2022/11/12 13:48:19;;;;;;;;;;;13.80;67.10;;;;;;5011393;28;19976;-83
2022/11/12 13:50:48;;;;;;;;;;;13.70;67.90;;;;;;5012654;28;19961;-83
2022/11/12 13:53:17;;;;;;;;;;;13.90;67.20;;;;;;5006117;28;19925;-83
2022/11/12 13:55:47;;;;;;;;;;;13.80;68.10;;;;;;4992358;28;19921;-83
2022/11/12 13:58:24;;;;;;;;;;;13.90;67.00;;;;;;5008865;28;19921;-83
2022/11/12 14:00:51;;;;;;;;;;;13.90;67.00;;;;;;5008803;28;19917;-80
2022/11/12 14:03:17;;;;;;;;;;;14.00;66.60;;;;;;4997168;28;19914;-81
2022/11/12 14:05:45;;;;;;;;;;;14.00;67.50;;;;;;5009944;28;19917;-82
2022/11/12 14:08:23;;;;;;;;;;;14.00;65.90;;;;;;5016442;28;20339;-81
2022/11/12 14:10:57;;;;;;;;;;;13.80;66.60;;;;;;5009136;28;19917;-81
2022/11/12 14:13:39;;;;;;;;;;;13.90;67.00;;;;;;5005507;28;20019;-81
2022/11/12 14:16:07;;;;;;;;;;;13.90;66.90;;;;;;5001321;28;19918;-80
2022/11/12 14:18:57;;;;;;;;;;;13.90;67.30;;;;;;5070090;23;20386;-89
2022/11/12 14:21:25;;;;;;;;;;;13.80;67.70;;;;;;5051015;28;19913;-89
2022/11/12 14:24:03;;;;;;;;;;;13.70;68.80;;;;;;5065100;28;19916;-88
2022/11/12 14:26:56;;;;;;;;;;;13.60;69.10;;;;;;5051544;28;19916;-88
2022/11/12 14:29:22;;;;;;;;;;;13.60;69.00;;;;;;5045719;28;19912;-88
2022/11/12 14:31:58;;;;;;;;;;;13.60;68.50;;;;;;5061678;28;19919;-88
2022/11/12 14:34:44;;;;;;;;;;;13.50;69.00;;;;;;5049615;28;19990;-87
2022/11/12 14:37:26;;;;;;;;;;;13.40;70.20;;;;;;5047547;28;20388;-88
2022/11/12 14:39:51;;;;;;;;;;;13.40;70.20;;;;;;5046751;28;20278;-89
2022/11/12 14:42:17;;;;;;;;;;;13.30;70.60;;;;;;5057175;28;20011;-89
2022/11/12 14:44:42;;;;;;;;;;;13.30;71.50;;;;;;5075692;28;19905;-88
2022/11/12 14:47:08;;;;;;;;;;;13.20;72.30;;;;;;5074427;28;20109;-86
2022/11/12 14:49:41;;;;;;;;;;;13.10;72.80;;;;;;5064190;28;19912;-88
2022/11/12 14:52:19;;;;;;;;;;;13.10;71.70;;;;;;5044351;28;19921;-88
2022/11/12 14:54:50;;;;;;;;;;;13.10;70.90;;;;;;5040971;28;20004;-86
2022/11/12 14:57:21;;;;;;;;;;;13.20;70.00;;;;;;5045100;28;19923;-87
2022/11/12 14:59:46;;;;;;;;;;;13.20;69.60;;;;;;5057362;28;19928;-84
2022/11/12 15:02:13;;;;;;;;;;;13.20;69.80;;;;;;5059875;28;20317;-86